Date,TemperatureHighF,TemperatureAvgF,TemperatureLowF,DewpointHighF,DewpointAvgF,DewpointLowF,HumidityHigh,HumidityAvg,HumidityLow,PressureMaxIn,PressureMinIn,WindSpeedMaxMPH,WindSpeedAvgMPH,GustSpeedMaxMPH,PrecipitationSumIn
2013-1-1,30.2,27.8,26.4,22.8,21.5,15.6,83,77,58,29.68,29.60,11,1,15,0.00
2013-1-2,22.7,12.8,4.6,9.5,0.5,-8.1,88,58,45,30.04,29.84,16,1,16,0.00
2013-1-3,22.7,10.0,1.4,6.0,-1.1,-8.5,76,61,42,30.09,29.94,10,0,10,0.00
2013-1-4,31.8,19.2,1.1,23.6,12.6,-3.9,86,75,66,29.94,29.71,12,1,12,0.00
2013-1-5,35.0,31.0,27.2,24.5,20.9,14.7,79,67,45,30.07,29.72,18,1,18,0.01
2013-1-6,35.0,23.7,14.0,24.5,17.1,8.1,84,76,62,30.22,29.89,1,0,6,0.04
2013-1-7,30.2,21.6,11.7,22.1,14.3,7.6,85,73,57,30.39,29.92,10,1,10,0.00
2013-1-8,41.8,29.2,11.7,26.5,20.9,7.6,86,72,50,30.34,30.17,13,1,13,0.09
2013-1-9,36.3,29.3,15.5,29.0,23.7,11.8,87,79,65,30.40,29.87,4,0,4,0.02
2013-1-10,42.6,36.6,27.5,30.2,25.3,20.1,82,64,50,30.51,29.89,21,2,21,0.03
2013-1-11,34.4,28.8,21.0,27.8,21.5,16.1,85,74,55,30.52,30.26,5,0,5,0.00
2013-1-12,38.8,34.9,31.9,36.1,32.3,28.8,91,90,88,30.24,30.09,0,0,3,0.07
2013-1-13,39.6,37.1,34.7,37.5,34.9,32.6,92,92,91,30.14,29.93,1,0,6,0.01
2013-1-14,57.6,43.4,33.1,51.7,36.4,25.3,93,77,57,30.19,29.83,9,0,9,0.00
2013-1-15,38.3,32.6,27.3,27.0,24.3,20.9,86,72,54,30.30,30.19,6,0,6,0.00
2013-1-16,30.7,29.4,27.6,27.6,26.1,20.5,89,87,67,30.25,29.77,3,0,4,0.00
2013-1-17,39.7,28.6,16.6,32.5,18.2,1.2,90,66,41,30.11,29.75,16,1,16,0.34
2013-1-18,17.9,13.7,8.0,3.3,-2.9,-8.8,60,47,35,30.33,30.08,11,2,11,0.00
2013-1-19,37.7,29.0,12.2,27.0,17.8,1.7,77,63,53,30.35,29.86,2,1,14,0.03
2013-1-20,47.2,37.1,27.8,31.2,24.3,9.7,85,61,42,29.84,29.43,5,2,28,0.07
2013-1-21,27.0,21.8,14.9,12.2,5.6,0.7,67,50,35,30.03,29.82,3,1,17,0.00
2013-1-22,19.7,14.4,8.0,10.4,2.7,-8.1,73,59,46,30.03,29.75,9,1,9,0.00
2013-1-23,8.0,3.0,-2.8,-7.7,-12.8,-15.6,59,47,36,30.09,30.01,16,1,16,0.00
2013-1-24,14.0,7.2,-6.3,-5.1,-8.7,-15.6,64,48,35,30.13,29.94,16,2,16,0.00
2013-1-25,19.7,11.1,-0.3,2.5,-2.5,-9.3,71,54,42,30.21,30.06,5,1,11,0.00
2013-1-26,20.7,14.8,9.3,0.8,-1.3,-4.0,59,49,36,30.13,29.97,3,2,16,0.00
2013-1-27,24.8,16.1,9.8,3.2,-0.3,-3.2,58,48,36,30.41,30.13,3,1,15,0.00
2013-1-28,26.4,18.0,9.8,11.1,1.3,-4.4,61,48,33,30.42,30.21,4,0,6,0.00
2013-1-29,32.0,30.4,29.5,27.2,25.2,22.2,87,81,73,30.17,30.13,3,0,4,0.09
2013-1-30,46.7,36.3,30.6,44.5,33.9,27.2,93,91,87,30.13,29.43,5,0,12,0.42
2013-1-31,51.5,41.4,29.5,49.5,30.3,13.1,93,66,46,29.45,28.84,26,5,26,0.14